sensor_id;sensor_type;location;lat;lon;timestamp;temperature;humidity
31575;DHT22;18182;1.328;103.810;2022-07-06T00:01:49;29.50;99.90
31575;DHT22;18182;1.328;103.810;2022-07-06T00:04:17;29.50;99.90
31575;DHT22;18182;1.328;103.810;2022-07-06T00:06:43;29.60;99.90
31575;DHT22;18182;1.328;103.810;2022-07-06T00:09:10;29.50;99.90
31575;DHT22;18182;1.328;103.810;2022-07-06T00:11:36;29.50;99.90
31575;DHT22;18182;1.328;103.810;2022-07-06T00:14:02;29.40;99.90
31575;DHT22;18182;1.328;103.810;2022-07-06T00:16:28;29.40;99.90
31575;DHT22;18182;1.328;103.810;2022-07-06T00:18:55;29.50;99.90
31575;DHT22;18182;1.328;103.810;2022-07-06T00:21:21;29.50;99.90
31575;DHT22;18182;1.328;103.810;2022-07-06T00:23:47;29.50;99.90
31575;DHT22;18182;1.328;103.810;2022-07-06T00:26:13;29.40;99.90
31575;DHT22;18182;1.328;103.810;2022-07-06T00:28:39;29.50;99.90
31575;DHT22;18182;1.328;103.810;2022-07-06T00:31:06;29.60;99.90
31575;DHT22;18182;1.328;103.810;2022-07-06T00:33:32;29.60;99.90
31575;DHT22;18182;1.328;103.810;2022-07-06T00:35:58;29.60;99.90
31575;DHT22;18182;1.328;103.810;2022-07-06T00:38:24;29.60;99.90
31575;DHT22;18182;1.328;103.810;2022-07-06T00:40:50;29.60;99.90
31575;DHT22;18182;1.328;103.810;2022-07-06T00:43:16;29.60;99.90
31575;DHT22;18182;1.328;103.810;2022-07-06T00:45:43;29.60;99.90
31575;DHT22;18182;1.328;103.810;2022-07-06T00:48:10;29.60;99.90
31575;DHT22;18182;1.328;103.810;2022-07-06T00:50:36;29.60;99.90
31575;DHT22;18182;1.328;103.810;2022-07-06T00:53:03;29.70;99.90
31575;DHT22;18182;1.328;103.810;2022-07-06T00:55:30;29.80;99.90
31575;DHT22;18182;1.328;103.810;2022-07-06T00:57:57;29.80;99.90
31575;DHT22;18182;1.328;103.810;2022-07-06T01:00:24;29.90;99.90
31575;DHT22;18182;1.328;103.810;2022-07-06T01:02:50;29.90;99.90
31575;DHT22;18182;1.328;103.810;2022-07-06T01:05:16;29.90;99.90
31575;DHT22;18182;1.328;103.810;2022-07-06T01:07:44;29.90;99.90
31575;DHT22;18182;1.328;103.810;2022-07-06T01:10:11;29.90;99.90
31575;DHT22;18182;1.328;103.810;2022-07-06T01:12:38;29.90;99.90
31575;DHT22;18182;1.328;103.810;2022-07-06T01:15:05;29.90;99.90
31575;DHT22;18182;1.328;103.810;2022-07-06T01:17:32;29.90;99.90
31575;DHT22;18182;1.328;103.810;2022-07-06T01:20:12;29.80;99.90
31575;DHT22;18182;1.328;103.810;2022-07-06T01:22:39;29.80;99.90
31575;DHT22;18182;1.328;103.810;2022-07-06T01:25:06;29.80;99.90
31575;DHT22;18182;1.328;103.810;2022-07-06T01:27:35;29.80;99.90
31575;DHT22;18182;1.328;103.810;2022-07-06T01:30:08;29.70;99.90
31575;DHT22;18182;1.328;103.810;2022-07-06T01:32:35;29.70;99.90
31575;DHT22;18182;1.328;103.810;2022-07-06T01:35:02;29.70;99.90
31575;DHT22;18182;1.328;103.810;2022-07-06T01:37:28;29.80;99.90
31575;DHT22;18182;1.328;103.810;2022-07-06T01:39:57;29.70;99.90
31575;DHT22;18182;1.328;103.810;2022-07-06T01:42:23;29.60;99.90
31575;DHT22;18182;1.328;103.810;2022-07-06T01:44:49;29.60;99.90
31575;DHT22;18182;1.328;103.810;2022-07-06T01:47:16;29.60;99.90
31575;DHT22;18182;1.328;103.810;2022-07-06T01:49:42;29.60;99.90
31575;DHT22;18182;1.328;103.810;2022-07-06T01:52:08;29.60;99.90
31575;DHT22;18182;1.328;103.810;2022-07-06T01:54:34;29.80;99.90
31575;DHT22;18182;1.328;103.810;2022-07-06T01:57:00;29.80;99.90
31575;DHT22;18182;1.328;103.810;2022-07-06T01:59:26;29.80;99.90
31575;DHT22;18182;1.328;103.810;2022-07-06T02:01:53;29.80;99.90
31575;DHT22;18182;1.328;103.810;2022-07-06T02:04:19;29.90;99.90
31575;DHT22;18182;1.328;103.810;2022-07-06T02:06:45;29.90;99.90
31575;DHT22;18182;1.328;103.810;2022-07-06T02:09:11;30.00;99.90
31575;DHT22;18182;1.328;103.810;2022-07-06T02:11:37;30.20;99.90
31575;DHT22;18182;1.328;103.810;2022-07-06T02:14:03;30.30;99.90
31575;DHT22;18182;1.328;103.810;2022-07-06T02:16:30;30.30;99.90
31575;DHT22;18182;1.328;103.810;2022-07-06T02:18:56;30.40;99.90
31575;DHT22;18182;1.328;103.810;2022-07-06T02:21:22;30.40;99.90
31575;DHT22;18182;1.328;103.810;2022-07-06T02:23:48;30.40;99.90
31575;DHT22;18182;1.328;103.810;2022-07-06T02:26:14;30.40;99.90
31575;DHT22;18182;1.328;103.810;2022-07-06T02:28:41;30.40;99.90
31575;DHT22;18182;1.328;103.810;2022-07-06T02:31:07;30.50;99.90
31575;DHT22;18182;1.328;103.810;2022-07-06T02:33:33;30.60;99.90
31575;DHT22;18182;1.328;103.810;2022-07-06T02:35:59;30.50;99.90
31575;DHT22;18182;1.328;103.810;2022-07-06T02:38:25;30.60;99.90
31575;DHT22;18182;1.328;103.810;2022-07-06T02:40:51;30.60;99.90
31575;DHT22;18182;1.328;103.810;2022-07-06T02:43:18;30.70;99.90
31575;DHT22;18182;1.328;103.810;2022-07-06T02:45:44;30.70;99.90
31575;DHT22;18182;1.328;103.810;2022-07-06T02:48:10;30.70;99.90
31575;DHT22;18182;1.328;103.810;2022-07-06T02:50:36;30.70;99.90
31575;DHT22;18182;1.328;103.810;2022-07-06T02:53:02;30.70;99.90
31575;DHT22;18182;1.328;103.810;2022-07-06T02:55:28;30.80;99.90
31575;DHT22;18182;1.328;103.810;2022-07-06T02:57:55;30.80;99.90
31575;DHT22;18182;1.328;103.810;2022-07-06T03:00:21;30.80;99.90
31575;DHT22;18182;1.328;103.810;2022-07-06T03:02:47;30.90;99.90
31575;DHT22;18182;1.328;103.810;2022-07-06T03:05:13;30.90;99.90
31575;DHT22;18182;1.328;103.810;2022-07-06T03:07:40;30.90;99.90
31575;DHT22;18182;1.328;103.810;2022-07-06T03:10:06;31.00;99.90
31575;DHT22;18182;1.328;103.810;2022-07-06T03:12:32;31.00;99.90
31575;DHT22;18182;1.328;103.810;2022-07-06T03:14:58;31.00;99.90
31575;DHT22;18182;1.328;103.810;2022-07-06T03:17:24;31.00;99.90
31575;DHT22;18182;1.328;103.810;2022-07-06T03:19:50;31.00;99.90
31575;DHT22;18182;1.328;103.810;2022-07-06T03:22:18;31.00;99.90
31575;DHT22;18182;1.328;103.810;2022-07-06T03:24:44;31.00;99.90
31575;DHT22;18182;1.328;103.810;2022-07-06T03:27:10;31.10;99.90
31575;DHT22;18182;1.328;103.810;2022-07-06T03:29:36;31.10;99.90
31575;DHT22;18182;1.328;103.810;2022-07-06T03:32:02;31.10;99.90
31575;DHT22;18182;1.328;103.810;2022-07-06T03:34:28;31.10;99.90
31575;DHT22;18182;1.328;103.810;2022-07-06T03:36:54;31.20;99.90
31575;DHT22;18182;1.328;103.810;2022-07-06T03:39:21;31.20;99.90
31575;DHT22;18182;1.328;103.810;2022-07-06T03:41:47;31.30;99.90
31575;DHT22;18182;1.328;103.810;2022-07-06T03:44:13;31.40;99.90
31575;DHT22;18182;1.328;103.810;2022-07-06T03:46:39;31.40;99.90
31575;DHT22;18182;1.328;103.810;2022-07-06T03:49:05;31.50;99.90
31575;DHT22;18182;1.328;103.810;2022-07-06T03:51:31;31.50;99.90
31575;DHT22;18182;1.328;103.810;2022-07-06T03:53:57;31.50;99.90
31575;DHT22;18182;1.328;103.810;2022-07-06T03:56:23;31.40;99.90
31575;DHT22;18182;1.328;103.810;2022-07-06T03:58:56;31.40;99.90
31575;DHT22;18182;1.328;103.810;2022-07-06T04:01:22;31.30;99.90
31575;DHT22;18182;1.328;103.810;2022-07-06T04:03:48;31.30;99.90
31575;DHT22;18182;1.328;103.810;2022-07-06T04:06:14;31.30;99.90
31575;DHT22;18182;1.328;103.810;2022-07-06T04:08:41;31.20;99.90
31575;DHT22;18182;1.328;103.810;2022-07-06T04:11:07;31.20;99.90
31575;DHT22;18182;1.328;103.810;2022-07-06T04:13:34;31.20;99.90
31575;DHT22;18182;1.328;103.810;2022-07-06T04:16:00;31.20;99.90
31575;DHT22;18182;1.328;103.810;2022-07-06T04:18:26;31.10;99.90
31575;DHT22;18182;1.328;103.810;2022-07-06T04:20:52;31.00;99.90
31575;DHT22;18182;1.328;103.810;2022-07-06T04:23:18;30.90;99.90
31575;DHT22;18182;1.328;103.810;2022-07-06T04:25:45;30.80;99.90
31575;DHT22;18182;1.328;103.810;2022-07-06T04:28:11;30.70;99.90
31575;DHT22;18182;1.328;103.810;2022-07-06T04:30:37;30.80;99.90
31575;DHT22;18182;1.328;103.810;2022-07-06T04:33:04;30.80;99.90
31575;DHT22;18182;1.328;103.810;2022-07-06T04:35:31;30.80;99.90
31575;DHT22;18182;1.328;103.810;2022-07-06T04:37:57;30.80;99.90
31575;DHT22;18182;1.328;103.810;2022-07-06T04:40:26;30.80;99.90
31575;DHT22;18182;1.328;103.810;2022-07-06T04:42:53;30.80;99.90
31575;DHT22;18182;1.328;103.810;2022-07-06T04:45:25;30.90;99.90
31575;DHT22;18182;1.328;103.810;2022-07-06T04:47:54;30.90;99.90
31575;DHT22;18182;1.328;103.810;2022-07-06T04:50:20;30.90;99.90
31575;DHT22;18182;1.328;103.810;2022-07-06T04:52:47;31.00;99.90
31575;DHT22;18182;1.328;103.810;2022-07-06T04:55:13;31.00;99.90
31575;DHT22;18182;1.328;103.810;2022-07-06T04:57:40;31.00;99.90
31575;DHT22;18182;1.328;103.810;2022-07-06T05:00:06;31.10;99.90
31575;DHT22;18182;1.328;103.810;2022-07-06T05:02:33;31.10;99.90
31575;DHT22;18182;1.328;103.810;2022-07-06T05:04:59;31.20;99.90
31575;DHT22;18182;1.328;103.810;2022-07-06T05:07:26;31.20;99.90
31575;DHT22;18182;1.328;103.810;2022-07-06T05:09:56;31.20;99.90
31575;DHT22;18182;1.328;103.810;2022-07-06T05:12:22;31.20;99.90
31575;DHT22;18182;1.328;103.810;2022-07-06T05:14:49;31.30;99.90
31575;DHT22;18182;1.328;103.810;2022-07-06T05:17:15;31.30;99.90
31575;DHT22;18182;1.328;103.810;2022-07-06T05:19:41;31.30;99.90
31575;DHT22;18182;1.328;103.810;2022-07-06T05:22:07;31.30;99.90
31575;DHT22;18182;1.328;103.810;2022-07-06T05:24:33;31.40;99.90
31575;DHT22;18182;1.328;103.810;2022-07-06T05:27:00;31.40;99.90
31575;DHT22;18182;1.328;103.810;2022-07-06T05:29:26;31.40;99.90
31575;DHT22;18182;1.328;103.810;2022-07-06T05:31:52;31.30;99.90
31575;DHT22;18182;1.328;103.810;2022-07-06T05:34:18;31.30;99.90
31575;DHT22;18182;1.328;103.810;2022-07-06T05:36:44;31.30;99.90
31575;DHT22;18182;1.328;103.810;2022-07-06T05:39:10;31.30;99.90
31575;DHT22;18182;1.328;103.810;2022-07-06T05:41:36;31.30;99.90
31575;DHT22;18182;1.328;103.810;2022-07-06T05:44:03;31.20;99.90
31575;DHT22;18182;1.328;103.810;2022-07-06T05:46:32;31.20;99.90
31575;DHT22;18182;1.328;103.810;2022-07-06T05:48:58;31.20;99.90
31575;DHT22;18182;1.328;103.810;2022-07-06T05:51:43;31.20;99.90
31575;DHT22;18182;1.328;103.810;2022-07-06T05:54:09;31.20;99.90
31575;DHT22;18182;1.328;103.810;2022-07-06T05:56:35;31.10;99.90
31575;DHT22;18182;1.328;103.810;2022-07-06T05:59:01;31.10;99.90
31575;DHT22;18182;1.328;103.810;2022-07-06T06:01:27;31.00;99.90
31575;DHT22;18182;1.328;103.810;2022-07-06T06:03:54;31.00;99.90
31575;DHT22;18182;1.328;103.810;2022-07-06T06:06:20;31.10;99.90
31575;DHT22;18182;1.328;103.810;2022-07-06T06:08:46;31.10;99.90
31575;DHT22;18182;1.328;103.810;2022-07-06T06:11:12;31.10;99.90
31575;DHT22;18182;1.328;103.810;2022-07-06T06:13:39;31.10;99.90
31575;DHT22;18182;1.328;103.810;2022-07-06T06:16:05;31.20;99.90
31575;DHT22;18182;1.328;103.810;2022-07-06T06:18:31;31.30;99.90
31575;DHT22;18182;1.328;103.810;2022-07-06T06:20:57;31.30;99.90
31575;DHT22;18182;1.328;103.810;2022-07-06T06:23:23;31.30;99.90
31575;DHT22;18182;1.328;103.810;2022-07-06T06:25:49;31.30;99.90
31575;DHT22;18182;1.328;103.810;2022-07-06T06:28:16;31.20;99.90
31575;DHT22;18182;1.328;103.810;2022-07-06T06:30:42;31.30;99.90
31575;DHT22;18182;1.328;103.810;2022-07-06T06:33:16;31.20;99.90
31575;DHT22;18182;1.328;103.810;2022-07-06T06:35:43;31.30;99.90
31575;DHT22;18182;1.328;103.810;2022-07-06T06:38:09;31.30;99.90
31575;DHT22;18182;1.328;103.810;2022-07-06T06:40:35;31.30;99.90
31575;DHT22;18182;1.328;103.810;2022-07-06T06:43:02;31.20;99.90
31575;DHT22;18182;1.328;103.810;2022-07-06T06:45:28;31.30;99.90
31575;DHT22;18182;1.328;103.810;2022-07-06T06:47:54;31.30;99.90
31575;DHT22;18182;1.328;103.810;2022-07-06T06:50:21;31.40;99.90
31575;DHT22;18182;1.328;103.810;2022-07-06T06:52:49;31.40;99.90
31575;DHT22;18182;1.328;103.810;2022-07-06T06:55:15;31.50;99.90
31575;DHT22;18182;1.328;103.810;2022-07-06T06:57:41;31.60;99.90
31575;DHT22;18182;1.328;103.810;2022-07-06T07:00:08;31.60;99.90
31575;DHT22;18182;1.328;103.810;2022-07-06T07:02:34;31.50;99.90
31575;DHT22;18182;1.328;103.810;2022-07-06T07:05:00;31.50;99.90
31575;DHT22;18182;1.328;103.810;2022-07-06T07:07:27;31.50;99.90
31575;DHT22;18182;1.328;103.810;2022-07-06T07:09:53;31.50;99.90
31575;DHT22;18182;1.328;103.810;2022-07-06T07:12:19;31.50;99.90
31575;DHT22;18182;1.328;103.810;2022-07-06T07:14:45;31.60;99.90
31575;DHT22;18182;1.328;103.810;2022-07-06T07:17:13;31.50;99.90
31575;DHT22;18182;1.328;103.810;2022-07-06T07:19:39;31.50;99.90
31575;DHT22;18182;1.328;103.810;2022-07-06T07:22:05;31.50;99.90
31575;DHT22;18182;1.328;103.810;2022-07-06T07:24:36;31.40;99.90
31575;DHT22;18182;1.328;103.810;2022-07-06T07:27:02;31.40;99.90
31575;DHT22;18182;1.328;103.810;2022-07-06T07:29:29;31.40;99.90
31575;DHT22;18182;1.328;103.810;2022-07-06T07:31:55;31.50;99.90
31575;DHT22;18182;1.328;103.810;2022-07-06T07:34:24;31.50;99.90
31575;DHT22;18182;1.328;103.810;2022-07-06T07:36:50;31.50;99.90
31575;DHT22;18182;1.328;103.810;2022-07-06T07:39:16;31.50;99.90
31575;DHT22;18182;1.328;103.810;2022-07-06T07:41:42;31.50;99.90
31575;DHT22;18182;1.328;103.810;2022-07-06T07:44:08;31.50;99.90
31575;DHT22;18182;1.328;103.810;2022-07-06T07:46:34;31.50;99.90
31575;DHT22;18182;1.328;103.810;2022-07-06T07:49:00;31.50;99.90
31575;DHT22;18182;1.328;103.810;2022-07-06T07:51:27;31.50;99.90
31575;DHT22;18182;1.328;103.810;2022-07-06T07:53:53;31.50;99.90
31575;DHT22;18182;1.328;103.810;2022-07-06T07:56:19;31.50;99.90
31575;DHT22;18182;1.328;103.810;2022-07-06T07:58:45;31.50;99.90
31575;DHT22;18182;1.328;103.810;2022-07-06T08:01:11;31.60;99.90
31575;DHT22;18182;1.328;103.810;2022-07-06T08:03:37;31.60;99.90
31575;DHT22;18182;1.328;103.810;2022-07-06T08:06:03;31.60;99.90
31575;DHT22;18182;1.328;103.810;2022-07-06T08:08:30;31.60;99.90
31575;DHT22;18182;1.328;103.810;2022-07-06T08:10:56;31.70;99.90
31575;DHT22;18182;1.328;103.810;2022-07-06T08:13:22;31.70;99.90
31575;DHT22;18182;1.328;103.810;2022-07-06T08:15:48;31.70;99.90
31575;DHT22;18182;1.328;103.810;2022-07-06T08:18:14;31.70;99.90
31575;DHT22;18182;1.328;103.810;2022-07-06T08:20:40;31.70;99.90
31575;DHT22;18182;1.328;103.810;2022-07-06T08:23:07;31.70;99.90
31575;DHT22;18182;1.328;103.810;2022-07-06T08:25:33;31.70;99.90
31575;DHT22;18182;1.328;103.810;2022-07-06T08:27:59;31.70;99.90
31575;DHT22;18182;1.328;103.810;2022-07-06T08:30:26;31.70;99.90
31575;DHT22;18182;1.328;103.810;2022-07-06T08:32:53;31.70;99.90
31575;DHT22;18182;1.328;103.810;2022-07-06T08:35:19;31.70;99.90
31575;DHT22;18182;1.328;103.810;2022-07-06T08:37:45;31.60;99.90
31575;DHT22;18182;1.328;103.810;2022-07-06T08:40:12;31.60;99.90
31575;DHT22;18182;1.328;103.810;2022-07-06T08:42:38;31.60;99.90
31575;DHT22;18182;1.328;103.810;2022-07-06T08:45:05;31.50;99.90
31575;DHT22;18182;1.328;103.810;2022-07-06T08:47:32;31.50;99.90
31575;DHT22;18182;1.328;103.810;2022-07-06T08:50:00;31.40;99.90
31575;DHT22;18182;1.328;103.810;2022-07-06T08:52:27;31.40;99.90
31575;DHT22;18182;1.328;103.810;2022-07-06T08:54:53;31.30;99.90
31575;DHT22;18182;1.328;103.810;2022-07-06T08:57:19;31.30;99.90
31575;DHT22;18182;1.328;103.810;2022-07-06T08:59:45;31.40;99.90
31575;DHT22;18182;1.328;103.810;2022-07-06T09:02:13;31.40;99.90
31575;DHT22;18182;1.328;103.810;2022-07-06T09:04:39;31.30;99.90
31575;DHT22;18182;1.328;103.810;2022-07-06T09:07:07;31.40;99.90
31575;DHT22;18182;1.328;103.810;2022-07-06T09:09:34;31.40;99.90
31575;DHT22;18182;1.328;103.810;2022-07-06T09:12:02;31.30;99.90
31575;DHT22;18182;1.328;103.810;2022-07-06T09:14:29;31.40;99.90
31575;DHT22;18182;1.328;103.810;2022-07-06T09:17:02;31.30;99.90
31575;DHT22;18182;1.328;103.810;2022-07-06T09:19:32;31.30;99.90
31575;DHT22;18182;1.328;103.810;2022-07-06T09:21:59;31.30;99.90
31575;DHT22;18182;1.328;103.810;2022-07-06T09:24:25;31.30;99.90
31575;DHT22;18182;1.328;103.810;2022-07-06T09:26:55;31.20;99.90
31575;DHT22;18182;1.328;103.810;2022-07-06T09:29:26;31.20;99.90
31575;DHT22;18182;1.328;103.810;2022-07-06T09:31:59;31.20;99.90
31575;DHT22;18182;1.328;103.810;2022-07-06T09:34:46;31.20;99.90
31575;DHT22;18182;1.328;103.810;2022-07-06T09:37:12;31.20;99.90
31575;DHT22;18182;1.328;103.810;2022-07-06T09:39:39;31.20;99.90
31575;DHT22;18182;1.328;103.810;2022-07-06T09:42:05;31.20;99.90
31575;DHT22;18182;1.328;103.810;2022-07-06T09:44:35;31.10;99.90
31575;DHT22;18182;1.328;103.810;2022-07-06T09:47:03;31.10;99.90
31575;DHT22;18182;1.328;103.810;2022-07-06T09:49:30;31.00;99.90
31575;DHT22;18182;1.328;103.810;2022-07-06T09:51:57;31.00;99.90
31575;DHT22;18182;1.328;103.810;2022-07-06T09:54:23;31.00;99.90
31575;DHT22;18182;1.328;103.810;2022-07-06T09:56:50;31.00;99.90
31575;DHT22;18182;1.328;103.810;2022-07-06T09:59:17;31.00;99.90
31575;DHT22;18182;1.328;103.810;2022-07-06T10:01:44;31.00;99.90
31575;DHT22;18182;1.328;103.810;2022-07-06T10:04:11;31.00;99.90
31575;DHT22;18182;1.328;103.810;2022-07-06T10:06:41;31.00;99.90
31575;DHT22;18182;1.328;103.810;2022-07-06T10:09:08;31.00;99.90
31575;DHT22;18182;1.328;103.810;2022-07-06T10:11:37;31.00;99.90
31575;DHT22;18182;1.328;103.810;2022-07-06T10:14:05;31.00;99.90
31575;DHT22;18182;1.328;103.810;2022-07-06T10:16:31;31.00;99.90
31575;DHT22;18182;1.328;103.810;2022-07-06T10:18:57;31.00;99.90
31575;DHT22;18182;1.328;103.810;2022-07-06T10:21:24;31.00;99.90
31575;DHT22;18182;1.328;103.810;2022-07-06T10:23:51;30.90;99.90
31575;DHT22;18182;1.328;103.810;2022-07-06T10:26:17;30.80;99.90
31575;DHT22;18182;1.328;103.810;2022-07-06T10:28:44;30.80;99.90
31575;DHT22;18182;1.328;103.810;2022-07-06T10:31:13;30.80;99.90
31575;DHT22;18182;1.328;103.810;2022-07-06T10:33:40;30.80;99.90
31575;DHT22;18182;1.328;103.810;2022-07-06T10:36:07;30.80;99.90
31575;DHT22;18182;1.328;103.810;2022-07-06T10:38:33;30.70;99.90
31575;DHT22;18182;1.328;103.810;2022-07-06T10:41:18;30.70;99.90
31575;DHT22;18182;1.328;103.810;2022-07-06T10:45:01;30.80;99.90
31575;DHT22;18182;1.328;103.810;2022-07-06T10:46:59;30.70;99.90
31575;DHT22;18182;1.328;103.810;2022-07-06T10:49:26;30.70;99.90
31575;DHT22;18182;1.328;103.810;2022-07-06T10:51:53;30.70;99.90
31575;DHT22;18182;1.328;103.810;2022-07-06T10:54:51;30.70;99.90
31575;DHT22;18182;1.328;103.810;2022-07-06T10:57:31;30.70;99.90
31575;DHT22;18182;1.328;103.810;2022-07-06T11:00:22;30.70;99.90
31575;DHT22;18182;1.328;103.810;2022-07-06T11:02:49;30.70;99.90
31575;DHT22;18182;1.328;103.810;2022-07-06T11:08:19;30.60;99.90
31575;DHT22;18182;1.328;103.810;2022-07-06T11:10:46;30.60;99.90
31575;DHT22;18182;1.328;103.810;2022-07-06T11:13:26;30.60;99.90
31575;DHT22;18182;1.328;103.810;2022-07-06T11:15:52;30.60;99.90
31575;DHT22;18182;1.328;103.810;2022-07-06T11:18:26;30.50;99.90
31575;DHT22;18182;1.328;103.810;2022-07-06T11:23:37;30.40;99.90
31575;DHT22;18182;1.328;103.810;2022-07-06T11:26:04;30.40;99.90
31575;DHT22;18182;1.328;103.810;2022-07-06T11:28:30;30.30;99.90
31575;DHT22;18182;1.328;103.810;2022-07-06T11:30:56;30.30;99.90
31575;DHT22;18182;1.328;103.810;2022-07-06T11:33:29;30.30;99.90
31575;DHT22;18182;1.328;103.810;2022-07-06T11:36:14;30.30;99.90
31575;DHT22;18182;1.328;103.810;2022-07-06T11:38:40;30.30;99.90
31575;DHT22;18182;1.328;103.810;2022-07-06T11:41:07;30.30;99.90
31575;DHT22;18182;1.328;103.810;2022-07-06T11:43:34;30.30;99.90
31575;DHT22;18182;1.328;103.810;2022-07-06T11:46:00;30.30;99.90
31575;DHT22;18182;1.328;103.810;2022-07-06T11:48:26;30.30;99.90
31575;DHT22;18182;1.328;103.810;2022-07-06T11:51:02;30.30;99.90
31575;DHT22;18182;1.328;103.810;2022-07-06T11:53:28;30.20;99.90
31575;DHT22;18182;1.328;103.810;2022-07-06T11:55:55;30.20;99.90
31575;DHT22;18182;1.328;103.810;2022-07-06T11:58:22;30.30;99.90
31575;DHT22;18182;1.328;103.810;2022-07-06T12:01:07;30.30;99.90
31575;DHT22;18182;1.328;103.810;2022-07-06T12:03:33;30.30;99.90
31575;DHT22;18182;1.328;103.810;2022-07-06T12:06:03;30.30;99.90
31575;DHT22;18182;1.328;103.810;2022-07-06T12:08:30;30.30;99.90
31575;DHT22;18182;1.328;103.810;2022-07-06T12:10:56;30.30;99.90
31575;DHT22;18182;1.328;103.810;2022-07-06T12:13:23;30.40;99.90
31575;DHT22;18182;1.328;103.810;2022-07-06T12:15:50;30.30;99.90
31575;DHT22;18182;1.328;103.810;2022-07-06T12:18:16;30.30;99.90
31575;DHT22;18182;1.328;103.810;2022-07-06T12:20:43;30.30;99.90
31575;DHT22;18182;1.328;103.810;2022-07-06T12:23:09;30.30;99.90
31575;DHT22;18182;1.328;103.810;2022-07-06T12:25:35;30.30;99.90
31575;DHT22;18182;1.328;103.810;2022-07-06T12:28:02;30.30;99.90
31575;DHT22;18182;1.328;103.810;2022-07-06T12:30:29;30.30;99.90
31575;DHT22;18182;1.328;103.810;2022-07-06T12:33:14;30.30;99.90
31575;DHT22;18182;1.328;103.810;2022-07-06T12:35:46;30.30;99.90
31575;DHT22;18182;1.328;103.810;2022-07-06T12:38:12;30.40;99.90
31575;DHT22;18182;1.328;103.810;2022-07-06T12:40:38;30.40;99.90
31575;DHT22;18182;1.328;103.810;2022-07-06T12:43:05;30.40;99.90
31575;DHT22;18182;1.328;103.810;2022-07-06T12:45:31;30.40;99.90
31575;DHT22;18182;1.328;103.810;2022-07-06T12:47:58;30.40;99.90
31575;DHT22;18182;1.328;103.810;2022-07-06T12:50:35;30.40;99.90
31575;DHT22;18182;1.328;103.810;2022-07-06T12:53:02;30.40;99.90
31575;DHT22;18182;1.328;103.810;2022-07-06T12:55:32;30.40;99.90
31575;DHT22;18182;1.328;103.810;2022-07-06T12:57:59;30.40;99.90
31575;DHT22;18182;1.328;103.810;2022-07-06T13:00:25;30.40;99.90
31575;DHT22;18182;1.328;103.810;2022-07-06T13:02:52;30.50;99.90
31575;DHT22;18182;1.328;103.810;2022-07-06T13:05:22;30.50;99.90
31575;DHT22;18182;1.328;103.810;2022-07-06T13:07:55;30.50;99.90
31575;DHT22;18182;1.328;103.810;2022-07-06T13:10:22;30.50;99.90
31575;DHT22;18182;1.328;103.810;2022-07-06T13:12:49;30.50;99.90
31575;DHT22;18182;1.328;103.810;2022-07-06T13:15:15;30.40;99.90
31575;DHT22;18182;1.328;103.810;2022-07-06T13:17:42;30.40;99.90
31575;DHT22;18182;1.328;103.810;2022-07-06T13:20:10;30.40;99.90
31575;DHT22;18182;1.328;103.810;2022-07-06T13:22:37;30.40;99.90
31575;DHT22;18182;1.328;103.810;2022-07-06T13:25:04;30.40;99.90
31575;DHT22;18182;1.328;103.810;2022-07-06T13:27:30;30.40;99.90
31575;DHT22;18182;1.328;103.810;2022-07-06T13:29:56;30.40;99.90
31575;DHT22;18182;1.328;103.810;2022-07-06T13:32:22;30.30;99.90
31575;DHT22;18182;1.328;103.810;2022-07-06T13:34:48;30.30;99.90
31575;DHT22;18182;1.328;103.810;2022-07-06T13:37:15;30.40;99.90
31575;DHT22;18182;1.328;103.810;2022-07-06T13:39:41;30.40;99.90
31575;DHT22;18182;1.328;103.810;2022-07-06T13:42:07;30.40;99.90
31575;DHT22;18182;1.328;103.810;2022-07-06T13:44:34;30.40;99.90
31575;DHT22;18182;1.328;103.810;2022-07-06T13:47:01;30.40;99.90
31575;DHT22;18182;1.328;103.810;2022-07-06T13:49:27;30.40;99.90
31575;DHT22;18182;1.328;103.810;2022-07-06T13:51:53;30.40;99.90
31575;DHT22;18182;1.328;103.810;2022-07-06T13:54:20;30.40;99.90
31575;DHT22;18182;1.328;103.810;2022-07-06T13:56:46;30.40;99.90
31575;DHT22;18182;1.328;103.810;2022-07-06T13:59:13;30.40;99.90
31575;DHT22;18182;1.328;103.810;2022-07-06T14:01:39;30.40;99.90
31575;DHT22;18182;1.328;103.810;2022-07-06T14:04:05;30.40;99.90
31575;DHT22;18182;1.328;103.810;2022-07-06T14:06:31;30.30;99.90
31575;DHT22;18182;1.328;103.810;2022-07-06T14:08:57;30.40;99.90
31575;DHT22;18182;1.328;103.810;2022-07-06T14:11:23;30.30;99.90
31575;DHT22;18182;1.328;103.810;2022-07-06T14:13:50;30.30;99.90
31575;DHT22;18182;1.328;103.810;2022-07-06T14:16:16;30.30;99.90
31575;DHT22;18182;1.328;103.810;2022-07-06T14:18:42;30.30;99.90
31575;DHT22;18182;1.328;103.810;2022-07-06T14:21:09;30.20;99.90
31575;DHT22;18182;1.328;103.810;2022-07-06T14:23:35;30.30;99.90
31575;DHT22;18182;1.328;103.810;2022-07-06T14:26:01;30.20;99.90
31575;DHT22;18182;1.328;103.810;2022-07-06T14:28:27;30.20;99.90
31575;DHT22;18182;1.328;103.810;2022-07-06T14:30:53;30.20;99.90
31575;DHT22;18182;1.328;103.810;2022-07-06T14:33:19;30.10;99.90
31575;DHT22;18182;1.328;103.810;2022-07-06T14:35:47;30.00;99.90
31575;DHT22;18182;1.328;103.810;2022-07-06T14:38:14;30.10;99.90
31575;DHT22;18182;1.328;103.810;2022-07-06T14:40:41;30.00;99.90
31575;DHT22;18182;1.328;103.810;2022-07-06T14:43:07;30.00;99.90
31575;DHT22;18182;1.328;103.810;2022-07-06T14:45:33;29.90;99.90
31575;DHT22;18182;1.328;103.810;2022-07-06T14:48:00;29.90;99.90
31575;DHT22;18182;1.328;103.810;2022-07-06T14:50:26;29.90;99.90
31575;DHT22;18182;1.328;103.810;2022-07-06T14:52:52;29.90;99.90
31575;DHT22;18182;1.328;103.810;2022-07-06T14:55:19;29.90;99.90
31575;DHT22;18182;1.328;103.810;2022-07-06T14:57:45;29.90;99.90
31575;DHT22;18182;1.328;103.810;2022-07-06T15:00:12;29.90;99.90
31575;DHT22;18182;1.328;103.810;2022-07-06T15:02:39;29.90;99.90
31575;DHT22;18182;1.328;103.810;2022-07-06T15:05:05;29.90;99.90
31575;DHT22;18182;1.328;103.810;2022-07-06T15:07:31;30.00;99.90
31575;DHT22;18182;1.328;103.810;2022-07-06T15:09:57;30.00;99.90
31575;DHT22;18182;1.328;103.810;2022-07-06T15:12:23;30.10;99.90
31575;DHT22;18182;1.328;103.810;2022-07-06T15:14:49;30.10;99.90
31575;DHT22;18182;1.328;103.810;2022-07-06T15:17:16;30.00;99.90
31575;DHT22;18182;1.328;103.810;2022-07-06T15:19:44;30.00;99.90
31575;DHT22;18182;1.328;103.810;2022-07-06T15:22:11;30.00;99.90